createdAt,value
2024-02-29T00:01:04.345Z,8.96
2024-02-29T00:03:34.421Z,8.93
2024-02-29T00:06:04.631Z,8.95
2024-02-29T00:08:37.197Z,8.91
2024-02-29T00:11:07.432Z,8.90
2024-02-29T00:13:37.517Z,8.86
2024-02-29T00:16:08.453Z,8.86
2024-02-29T00:18:38.480Z,8.80
2024-02-29T00:21:08.802Z,8.82
2024-02-29T00:23:41.518Z,8.82
2024-02-29T00:26:12.120Z,8.80
2024-02-29T00:28:42.112Z,8.79
2024-02-29T00:31:12.231Z,8.79
2024-02-29T00:33:43.862Z,8.80
2024-02-29T00:36:13.907Z,8.80
2024-02-29T00:38:46.745Z,8.81
2024-02-29T00:41:16.871Z,8.78
2024-02-29T00:43:46.878Z,8.79
2024-02-29T00:46:18.422Z,8.78
2024-02-29T00:48:49.313Z,8.77
2024-02-29T00:51:20.897Z,8.80
2024-02-29T00:53:53.456Z,8.79
2024-02-29T00:56:23.462Z,8.80
2024-02-29T00:58:53.402Z,8.83
2024-02-29T01:01:23.491Z,8.81
2024-02-29T01:03:53.615Z,8.80
2024-02-29T01:06:23.584Z,8.84
2024-02-29T01:08:56.225Z,8.80
2024-02-29T01:11:26.419Z,8.79
2024-02-29T01:13:56.578Z,8.77
2024-02-29T01:16:26.635Z,8.81
2024-02-29T01:18:56.649Z,8.79
2024-02-29T01:21:26.653Z,8.78
2024-02-29T01:23:59.209Z,8.79
2024-02-29T01:26:29.149Z,8.77
2024-02-29T01:28:59.096Z,8.78
2024-02-29T01:31:29.049Z,8.79
2024-02-29T01:33:59.040Z,8.78
2024-02-29T01:36:29.035Z,8.78
2024-02-29T01:39:01.670Z,8.78
2024-02-29T01:41:31.591Z,8.79
2024-02-29T01:44:01.854Z,8.76
2024-02-29T01:46:32.803Z,8.74
2024-02-29T01:49:05.745Z,8.74
2024-02-29T01:51:36.656Z,8.74
2024-02-29T01:54:10.145Z,8.76
2024-02-29T01:56:40.446Z,8.76
2024-02-29T01:59:11.027Z,8.73
2024-02-29T02:01:41.654Z,8.73
2024-02-29T02:04:09.089Z,8.76
2024-02-29T02:06:39.560Z,8.71
2024-02-29T02:09:12.206Z,8.72
2024-02-29T02:11:42.358Z,8.72
2024-02-29T02:14:12.606Z,8.71
2024-02-29T02:16:43.669Z,8.71
2024-02-29T02:19:15.911Z,8.70
2024-02-29T02:21:48.612Z,8.70
2024-02-29T02:24:18.670Z,8.70
2024-02-29T02:26:48.642Z,8.69
2024-02-29T02:29:18.619Z,8.71
2024-02-29T02:31:48.552Z,8.69
2024-02-29T02:34:18.617Z,8.71
2024-02-29T02:36:51.251Z,8.72
2024-02-29T02:39:21.457Z,8.72
2024-02-29T02:41:51.422Z,8.72
2024-02-29T02:44:21.387Z,8.71
2024-02-29T02:46:51.367Z,8.73
2024-02-29T02:49:22.265Z,8.72
2024-02-29T02:51:54.875Z,8.70
2024-02-29T02:54:24.883Z,8.71
2024-02-29T02:56:54.841Z,8.73
2024-02-29T02:59:25.000Z,8.74
2024-02-29T03:01:55.086Z,8.76
2024-02-29T03:04:25.117Z,8.73
2024-02-29T03:06:57.699Z,8.75
2024-02-29T03:09:27.725Z,8.76
2024-02-29T03:11:58.661Z,8.76
2024-02-29T03:14:28.782Z,8.76
2024-02-29T03:16:58.712Z,8.74
2024-02-29T03:19:28.720Z,8.74
2024-02-29T03:22:03.436Z,8.74
2024-02-29T03:24:33.433Z,8.72
2024-02-29T03:27:03.372Z,8.73
2024-02-29T03:29:35.126Z,8.72
2024-02-29T03:32:05.146Z,8.74
2024-02-29T03:34:35.267Z,8.78
2024-02-29T03:37:07.914Z,8.77
2024-02-29T03:39:39.449Z,8.77
2024-02-29T03:42:09.705Z,8.75
2024-02-29T03:44:42.736Z,8.77
2024-02-29T03:47:12.743Z,8.72
2024-02-29T03:49:43.323Z,8.76
2024-02-29T03:52:16.038Z,8.77
2024-02-29T03:54:46.571Z,8.76
2024-02-29T03:57:16.535Z,8.77
2024-02-29T03:59:48.580Z,8.79
2024-02-29T04:02:19.024Z,8.79
2024-02-29T04:04:49.113Z,8.81
2024-02-29T04:07:22.741Z,8.78
2024-02-29T04:09:56.046Z,8.76
2024-02-29T04:12:26.114Z,8.76
2024-02-29T04:14:56.090Z,8.74
2024-02-29T04:17:26.220Z,8.76
2024-02-29T04:19:56.188Z,8.77
2024-02-29T04:22:31.070Z,8.77
2024-02-29T04:25:01.171Z,8.80
2024-02-29T04:27:32.769Z,8.77
2024-02-29T04:30:02.754Z,8.73
2024-02-29T04:32:32.777Z,8.77
2024-02-29T04:35:02.849Z,8.77
2024-02-29T04:37:35.417Z,8.73
2024-02-29T04:40:07.483Z,8.72
2024-02-29T04:42:38.893Z,8.70
2024-02-29T04:45:09.977Z,8.69
2024-02-29T04:47:39.987Z,8.67
2024-02-29T04:50:10.831Z,8.66
2024-02-29T04:52:43.440Z,8.65
2024-02-29T04:55:14.391Z,8.63
2024-02-29T04:57:44.485Z,8.63
2024-02-29T05:00:15.845Z,8.62
2024-02-29T05:02:45.835Z,8.60
2024-02-29T05:05:16.888Z,8.60
2024-02-29T05:07:49.461Z,8.60
2024-02-29T05:10:19.575Z,8.58
2024-02-29T05:12:51.961Z,8.57
2024-02-29T05:15:24.266Z,8.56
2024-02-29T05:17:54.373Z,8.56
2024-02-29T05:20:24.400Z,8.53
2024-02-29T05:22:56.976Z,8.54
2024-02-29T05:25:27.601Z,8.55
2024-02-29T05:27:57.544Z,8.52
2024-02-29T05:30:27.493Z,8.53
2024-02-29T05:32:57.637Z,8.53
2024-02-29T05:35:27.722Z,8.55
2024-02-29T05:38:00.272Z,8.54
2024-02-29T05:40:30.781Z,8.53
2024-02-29T05:43:02.501Z,8.53
2024-02-29T05:45:32.505Z,8.54
2024-02-29T05:48:05.536Z,8.52
2024-02-29T05:50:38.631Z,8.50
2024-02-29T05:53:12.645Z,8.51
2024-02-29T05:55:42.558Z,8.48
2024-02-29T05:58:12.616Z,8.50
2024-02-29T06:00:42.664Z,8.51
2024-02-29T06:03:12.715Z,8.51
2024-02-29T06:05:43.519Z,8.52
2024-02-29T06:08:17.424Z,8.53
2024-02-29T06:10:48.457Z,8.54
2024-02-29T06:13:18.813Z,8.52
2024-02-29T06:15:49.056Z,8.53
2024-02-29T06:18:19.034Z,8.52
2024-02-29T06:20:48.975Z,8.54
2024-02-29T06:23:21.593Z,8.50
2024-02-29T06:25:52.777Z,8.50
2024-02-29T06:28:24.465Z,8.50
2024-02-29T06:30:54.927Z,8.51
2024-02-29T06:33:24.973Z,8.53
2024-02-29T06:35:55.827Z,8.54
2024-02-29T06:38:28.392Z,8.51
2024-02-29T06:40:58.333Z,8.49
2024-02-29T06:43:30.658Z,8.53
2024-02-29T06:46:05.806Z,8.49
2024-02-29T06:48:35.991Z,8.50
2024-02-29T06:51:06.346Z,8.50
2024-02-29T06:53:39.688Z,8.50
2024-02-29T06:56:09.964Z,8.51
2024-02-29T06:58:40.033Z,8.52
2024-02-29T07:01:10.018Z,8.51
2024-02-29T07:03:40.044Z,8.51
2024-02-29T07:06:10.573Z,8.50
2024-02-29T07:08:43.523Z,8.49
2024-02-29T07:11:15.505Z,8.50
2024-02-29T07:13:46.084Z,8.51
2024-02-29T07:16:16.146Z,8.51
2024-02-29T07:18:46.168Z,8.54
2024-02-29T07:21:16.822Z,8.53
2024-02-29T07:23:49.381Z,8.55
2024-02-29T07:26:19.359Z,8.58
2024-02-29T07:28:49.309Z,8.59
2024-02-29T07:31:22.827Z,8.58
2024-02-29T07:33:55.125Z,8.56
2024-02-29T07:36:26.098Z,8.59
2024-02-29T07:38:58.692Z,8.57
2024-02-29T07:41:28.780Z,8.57
2024-02-29T07:43:59.023Z,8.57
2024-02-29T07:46:29.086Z,8.57
2024-02-29T07:49:00.348Z,8.59
2024-02-29T07:51:30.337Z,8.60
2024-02-29T07:54:03.845Z,8.61
2024-02-29T07:56:33.866Z,8.62
2024-02-29T07:59:03.890Z,8.64
2024-02-29T08:01:34.062Z,8.63
2024-02-29T08:04:04.297Z,8.66
2024-02-29T08:06:37.077Z,8.69
2024-02-29T08:09:10.908Z,8.70
2024-02-29T08:11:41.189Z,8.71
2024-02-29T08:14:11.451Z,8.71
2024-02-29T08:16:41.661Z,8.76
2024-02-29T08:19:11.885Z,8.76
2024-02-29T08:21:42.001Z,8.77
2024-02-29T08:24:14.758Z,8.78
2024-02-29T08:26:45.401Z,8.80
2024-02-29T08:29:18.016Z,8.81
2024-02-29T08:31:48.359Z,8.81
2024-02-29T08:34:18.477Z,8.83
2024-02-29T08:36:51.277Z,8.83
2024-02-29T08:39:24.670Z,8.87
2024-02-29T08:41:54.953Z,8.90
2024-02-29T08:44:25.152Z,8.93
2024-02-29T08:46:55.451Z,8.91
2024-02-29T08:49:26.999Z,8.90
2024-02-29T08:51:57.675Z,8.93
2024-02-29T08:54:30.678Z,8.92
2024-02-29T08:57:00.791Z,8.92
2024-02-29T08:59:30.800Z,8.92
2024-02-29T09:02:02.241Z,8.94
2024-02-29T09:04:33.040Z,8.96
2024-02-29T09:07:04.234Z,8.97
2024-02-29T09:09:37.951Z,8.97
2024-02-29T09:12:10.342Z,9.00
2024-02-29T09:14:40.737Z,9.02
2024-02-29T09:17:10.793Z,9.03
2024-02-29T09:19:40.812Z,9.06
2024-02-29T09:22:10.918Z,9.08
2024-02-29T09:24:43.607Z,9.11
2024-02-29T09:27:13.586Z,9.16
2024-02-29T09:29:46.164Z,9.16
2024-02-29T09:32:23.471Z,9.17
2024-02-29T09:34:53.585Z,9.17
2024-02-29T09:37:23.801Z,9.18
2024-02-29T09:39:56.572Z,9.20
2024-02-29T09:42:29.059Z,9.22
2024-02-29T09:44:59.181Z,9.23
2024-02-29T09:47:30.846Z,9.26
2024-02-29T09:50:05.238Z,9.31
2024-02-29T09:52:40.088Z,9.34
2024-02-29T09:55:17.320Z,9.34
2024-02-29T09:57:47.690Z,9.36
2024-02-29T10:00:19.208Z,9.36
2024-02-29T10:02:52.913Z,9.38
2024-02-29T10:05:24.455Z,9.39
2024-02-29T10:07:54.405Z,9.41
2024-02-29T10:10:27.209Z,9.43
2024-02-29T10:12:58.563Z,9.43
2024-02-29T10:15:31.836Z,9.43
2024-02-29T10:18:02.393Z,9.44
2024-02-29T10:20:33.608Z,9.46
2024-02-29T10:23:04.906Z,9.46
2024-02-29T10:25:38.232Z,9.46
2024-02-29T10:28:08.596Z,9.48
2024-02-29T10:30:39.010Z,9.51
2024-02-29T10:33:15.044Z,9.53
2024-02-29T10:35:45.212Z,9.53
2024-02-29T10:38:16.458Z,9.51
2024-02-29T10:40:53.216Z,9.51
2024-02-29T10:43:24.524Z,9.53
2024-02-29T10:45:57.869Z,9.54
2024-02-29T10:48:38.121Z,9.57
2024-02-29T10:51:17.484Z,9.57
2024-02-29T10:53:57.055Z,9.58
2024-02-29T10:56:32.424Z,9.60
2024-02-29T10:59:09.171Z,9.60
2024-02-29T11:01:40.501Z,9.60
2024-02-29T11:04:10.596Z,9.65
2024-02-29T11:06:44.255Z,9.65
2024-02-29T11:09:15.965Z,9.67
2024-02-29T11:11:49.634Z,9.69
2024-02-29T11:14:22.692Z,9.72
2024-02-29T11:16:52.724Z,9.74
2024-02-29T11:19:22.796Z,9.73
2024-02-29T11:21:52.940Z,9.73
2024-02-29T11:24:24.362Z,9.71
2024-02-29T11:27:01.186Z,9.72
2024-02-29T11:29:31.406Z,9.72
2024-02-29T11:32:01.936Z,9.70
2024-02-29T11:34:32.011Z,9.74
2024-02-29T11:37:02.497Z,9.77
2024-02-29T11:39:32.469Z,9.82
2024-02-29T11:42:08.978Z,9.82
2024-02-29T11:44:40.941Z,9.84
2024-02-29T11:47:13.855Z,9.86
2024-02-29T11:49:43.946Z,9.87
2024-02-29T11:52:14.907Z,9.86
2024-02-29T11:54:45.807Z,9.88
2024-02-29T11:57:18.491Z,9.87
2024-02-29T11:59:49.022Z,9.86
2024-02-29T12:02:19.674Z,9.89
2024-02-29T12:04:49.662Z,9.90
2024-02-29T12:07:21.338Z,9.93
2024-02-29T12:09:51.946Z,9.95
2024-02-29T12:12:25.532Z,9.97
2024-02-29T12:14:55.683Z,9.95
2024-02-29T12:17:28.628Z,9.99
2024-02-29T12:19:59.440Z,9.96
2024-02-29T12:22:29.669Z,9.95
2024-02-29T12:25:01.251Z,9.94
2024-02-29T12:27:34.227Z,9.95
2024-02-29T12:30:05.241Z,9.95
2024-02-29T12:32:35.217Z,9.99
2024-02-29T12:35:05.599Z,10.00
2024-02-29T12:37:37.554Z,9.99
2024-02-29T12:40:10.100Z,10.01
2024-02-29T12:42:44.149Z,10.05
2024-02-29T12:45:16.914Z,10.06
2024-02-29T12:47:50.989Z,10.06
2024-02-29T12:50:22.402Z,10.07
2024-02-29T12:52:55.658Z,10.06
2024-02-29T12:55:25.964Z,10.10
2024-02-29T12:57:58.816Z,10.11
2024-02-29T13:00:30.051Z,10.13
2024-02-29T13:03:00.050Z,10.14
2024-02-29T13:05:30.035Z,10.19
2024-02-29T13:08:00.401Z,10.20
2024-02-29T13:10:30.533Z,10.20
2024-02-29T13:13:09.398Z,10.20
2024-02-29T13:15:40.476Z,10.19
2024-02-29T13:18:10.633Z,10.21
2024-02-29T13:20:41.504Z,10.22
2024-02-29T13:23:11.773Z,10.22
2024-02-29T13:25:41.847Z,10.23
2024-02-29T13:28:15.378Z,10.24
2024-02-29T13:30:45.404Z,10.26
2024-02-29T13:33:17.782Z,10.29
2024-02-29T13:35:47.947Z,10.29
2024-02-29T13:38:18.111Z,10.30
2024-02-29T13:40:48.247Z,10.28
2024-02-29T13:43:20.844Z,10.28
2024-02-29T13:45:50.898Z,10.23
2024-02-29T13:48:23.674Z,10.19
2024-02-29T13:50:53.644Z,10.19
2024-02-29T13:53:23.730Z,10.17
2024-02-29T13:55:54.011Z,10.18
2024-02-29T13:58:26.708Z,10.19
2024-02-29T14:00:56.787Z,10.19
2024-02-29T14:03:26.813Z,10.15
2024-02-29T14:05:57.020Z,10.13
2024-02-29T14:08:26.981Z,10.15
2024-02-29T14:11:12.128Z,10.16
2024-02-29T14:13:44.734Z,10.16
2024-02-29T14:16:14.833Z,10.19
2024-02-29T14:18:45.027Z,10.18
2024-02-29T14:21:16.644Z,10.18
2024-02-29T14:23:46.699Z,10.18
2024-02-29T14:26:17.442Z,10.21
2024-02-29T14:28:50.515Z,10.22
2024-02-29T14:31:20.874Z,10.25
2024-02-29T14:33:51.810Z,10.26
2024-02-29T14:36:22.036Z,10.27
2024-02-29T14:38:52.893Z,10.27
2024-02-29T14:41:22.923Z,10.30
2024-02-29T14:43:57.136Z,10.27
2024-02-29T14:46:29.133Z,10.31
2024-02-29T14:49:00.774Z,10.30
2024-02-29T14:51:30.838Z,10.31
2024-02-29T14:54:00.811Z,10.31
2024-02-29T14:56:31.794Z,10.28
2024-02-29T14:59:05.283Z,10.29
2024-02-29T15:01:35.596Z,10.29
2024-02-29T15:04:05.659Z,10.34
2024-02-29T15:06:36.061Z,10.35
2024-02-29T15:09:06.360Z,10.35
2024-02-29T15:11:36.412Z,10.34
2024-02-29T15:14:09.261Z,10.33
2024-02-29T15:16:40.055Z,10.35
2024-02-29T15:19:12.570Z,10.40
2024-02-29T15:21:42.680Z,10.38
2024-02-29T15:24:12.784Z,10.39
2024-02-29T15:26:44.050Z,10.34
2024-02-29T15:29:16.625Z,10.34
2024-02-29T15:31:46.862Z,10.33
2024-02-29T15:34:16.902Z,10.32
2024-02-29T15:36:47.752Z,10.33
2024-02-29T15:39:17.831Z,10.32
2024-02-29T15:41:47.791Z,10.30
2024-02-29T15:44:20.486Z,10.30
2024-02-29T15:46:52.095Z,10.30
2024-02-29T15:49:22.181Z,10.27
2024-02-29T15:51:52.331Z,10.24
2024-02-29T15:54:22.621Z,10.25
2024-02-29T15:56:52.759Z,10.22
2024-02-29T15:59:25.356Z,10.23
2024-02-29T16:01:55.374Z,10.23
2024-02-29T16:04:26.561Z,10.23
2024-02-29T16:06:59.876Z,10.25
2024-02-29T16:09:30.967Z,10.24
2024-02-29T16:12:01.719Z,10.25
2024-02-29T16:14:34.465Z,10.25
2024-02-29T16:17:05.463Z,10.25
2024-02-29T16:19:35.740Z,10.27
2024-02-29T16:22:05.857Z,10.27
2024-02-29T16:24:36.031Z,10.25
2024-02-29T16:27:05.994Z,10.24
2024-02-29T16:29:38.719Z,10.23
2024-02-29T16:32:09.791Z,10.21
2024-02-29T16:34:40.126Z,10.22
2024-02-29T16:37:10.228Z,10.22
2024-02-29T16:39:41.185Z,10.21
2024-02-29T16:42:11.756Z,10.21
2024-02-29T16:44:46.173Z,10.21
2024-02-29T16:47:16.972Z,10.23
2024-02-29T16:49:48.206Z,10.21
2024-02-29T16:52:18.171Z,10.22
2024-02-29T16:54:48.365Z,10.22
2024-02-29T16:57:18.562Z,10.19
2024-02-29T16:59:51.166Z,10.18
2024-02-29T17:02:21.240Z,10.18
2024-02-29T17:04:51.258Z,10.15
2024-02-29T17:07:21.285Z,10.13
2024-02-29T17:09:56.526Z,10.15
2024-02-29T17:12:32.245Z,10.12
2024-02-29T17:15:04.926Z,10.09
2024-02-29T17:17:35.030Z,10.08
2024-02-29T17:20:16.590Z,10.08
2024-02-29T17:22:48.488Z,10.07
2024-02-29T17:25:19.126Z,10.06
2024-02-29T17:27:49.141Z,10.04
2024-02-29T17:30:22.095Z,10.04
2024-02-29T17:32:55.122Z,10.02
2024-02-29T17:35:29.374Z,10.03
2024-02-29T17:38:00.118Z,10.02
2024-02-29T17:40:30.252Z,10.02
2024-02-29T17:43:02.183Z,10.01
2024-02-29T17:45:34.760Z,10.00
2024-02-29T17:48:04.845Z,10.00
2024-02-29T17:50:34.821Z,9.99
2024-02-29T17:53:04.842Z,10.01
2024-02-29T17:55:34.878Z,10.02
2024-02-29T17:58:04.902Z,10.01
2024-02-29T18:00:37.522Z,10.00
2024-02-29T18:03:08.146Z,10.00
2024-02-29T18:05:38.925Z,9.99
2024-02-29T18:08:09.440Z,10.00
2024-02-29T18:10:39.517Z,10.01
2024-02-29T18:13:09.600Z,10.00
2024-02-29T18:15:43.191Z,10.04
2024-02-29T18:18:14.031Z,10.01
2024-02-29T18:20:44.101Z,10.02
2024-02-29T18:23:16.173Z,10.02
2024-02-29T18:25:48.267Z,10.03
2024-02-29T18:28:18.570Z,10.05
2024-02-29T18:30:51.945Z,10.06
2024-02-29T18:33:22.014Z,10.07
2024-02-29T18:35:53.680Z,10.06
2024-02-29T18:38:24.078Z,10.05
2024-02-29T18:40:54.040Z,10.06
2024-02-29T18:43:24.119Z,10.07
2024-02-29T18:46:05.331Z,10.07
2024-02-29T18:48:37.043Z,10.08
2024-02-29T18:51:09.787Z,10.08
2024-02-29T18:53:39.807Z,10.08
2024-02-29T18:56:10.212Z,10.09
2024-02-29T18:58:40.282Z,10.10
2024-02-29T19:01:12.981Z,10.09
2024-02-29T19:03:43.154Z,10.11
2024-02-29T19:06:13.133Z,10.11
2024-02-29T19:08:43.093Z,10.10
2024-02-29T19:11:13.303Z,10.12
2024-02-29T19:13:44.061Z,10.12
2024-02-29T19:16:16.709Z,10.14
2024-02-29T19:18:46.872Z,10.11
2024-02-29T19:21:17.230Z,10.09
2024-02-29T19:23:47.210Z,10.10
2024-02-29T19:26:17.969Z,10.10
2024-02-29T19:28:47.925Z,10.08
2024-02-29T19:31:21.123Z,10.07
2024-02-29T19:33:51.168Z,10.08
2024-02-29T19:36:23.653Z,10.10
2024-02-29T19:38:55.146Z,10.12
2024-02-29T19:41:25.770Z,10.12
2024-02-29T19:43:55.757Z,10.12
2024-02-29T19:46:28.770Z,10.12
2024-02-29T19:49:01.123Z,10.13
2024-02-29T19:51:31.187Z,10.13
2024-02-29T19:54:01.140Z,10.13
2024-02-29T19:56:31.100Z,10.11
2024-02-29T19:59:01.037Z,10.10
2024-02-29T20:01:33.709Z,10.11
2024-02-29T20:04:03.876Z,10.10
2024-02-29T20:06:34.194Z,10.09
2024-02-29T20:09:05.542Z,10.09
2024-02-29T20:11:35.556Z,10.10
2024-02-29T20:14:06.737Z,10.09
2024-02-29T20:16:39.366Z,10.09
2024-02-29T20:19:10.379Z,10.08
2024-02-29T20:21:40.410Z,10.06
2024-02-29T20:24:10.554Z,10.07
2024-02-29T20:26:40.748Z,10.05
2024-02-29T20:29:12.254Z,10.06
2024-02-29T20:31:44.812Z,10.06
2024-02-29T20:34:14.811Z,10.05
2024-02-29T20:36:46.418Z,10.06
2024-02-29T20:39:16.581Z,10.05
2024-02-29T20:41:46.578Z,10.03
2024-02-29T20:44:17.169Z,10.04
2024-02-29T20:46:51.091Z,10.03
2024-02-29T20:49:21.142Z,10.02
2024-02-29T20:51:53.821Z,10.03
2024-02-29T20:54:25.026Z,10.01
2024-02-29T20:56:54.964Z,10.02
2024-02-29T20:59:27.273Z,10.00
2024-02-29T21:02:00.983Z,9.99
2024-02-29T21:04:31.083Z,10.00
2024-02-29T21:07:01.208Z,10.00
2024-02-29T21:09:31.182Z,9.99
2024-02-29T21:12:01.153Z,9.99
2024-02-29T21:14:31.134Z,9.99
2024-02-29T21:17:03.846Z,9.98
2024-02-29T21:19:34.032Z,9.97
2024-02-29T21:22:05.293Z,10.01
2024-02-29T21:24:35.248Z,9.96
2024-02-29T21:27:05.421Z,9.96
2024-02-29T21:29:35.423Z,9.95
2024-02-29T21:32:08.834Z,9.95
2024-02-29T21:34:38.820Z,9.94
2024-02-29T21:37:08.839Z,9.93
2024-02-29T21:39:44.735Z,9.92
2024-02-29T21:42:16.271Z,9.94
2024-02-29T21:44:46.689Z,9.95
2024-02-29T21:47:19.340Z,9.93
2024-02-29T21:49:51.526Z,9.93
2024-02-29T21:52:21.566Z,9.93
2024-02-29T21:54:51.620Z,9.93
2024-02-29T21:57:21.566Z,9.93
2024-02-29T21:59:51.560Z,9.93
2024-02-29T22:02:24.265Z,9.96
2024-02-29T22:04:55.857Z,9.95
2024-02-29T22:07:25.997Z,9.95
2024-02-29T22:09:56.076Z,9.96
2024-02-29T22:12:26.089Z,9.98
2024-02-29T22:14:57.656Z,9.99
2024-02-29T22:17:30.828Z,9.97
2024-02-29T22:20:00.783Z,10.00
2024-02-29T22:22:32.347Z,10.00
2024-02-29T22:25:02.309Z,10.00
2024-02-29T22:27:32.293Z,10.02
2024-02-29T22:30:02.314Z,10.04
2024-02-29T22:32:35.668Z,10.07
2024-02-29T22:35:08.011Z,10.09
2024-02-29T22:37:38.170Z,10.08
2024-02-29T22:40:09.755Z,10.08
2024-02-29T22:42:39.799Z,10.09
2024-02-29T22:45:13.473Z,10.09
2024-02-29T22:47:49.198Z,10.07
2024-02-29T22:50:20.889Z,10.08
2024-02-29T22:52:52.287Z,10.07
2024-02-29T22:55:22.272Z,10.09
2024-02-29T22:57:52.880Z,10.09
2024-02-29T23:00:27.405Z,10.08
2024-02-29T23:03:00.600Z,10.07
2024-02-29T23:05:31.380Z,10.05
2024-02-29T23:08:01.388Z,10.03
2024-02-29T23:10:31.394Z,10.05
2024-02-29T23:13:02.368Z,10.05
2024-02-29T23:15:32.325Z,10.06
2024-02-29T23:18:05.330Z,10.04
2024-02-29T23:20:35.389Z,10.04
2024-02-29T23:23:06.803Z,10.02
2024-02-29T23:25:37.188Z,10.01
2024-02-29T23:28:07.904Z,10.00
2024-02-29T23:30:38.011Z,10.00
2024-02-29T23:33:10.846Z,9.99
2024-02-29T23:35:40.793Z,9.96
2024-02-29T23:38:10.821Z,9.96
2024-02-29T23:40:41.610Z,9.93
2024-02-29T23:43:11.595Z,9.89
2024-02-29T23:45:41.723Z,9.87
2024-02-29T23:48:15.241Z,9.86
2024-02-29T23:50:46.069Z,9.85
2024-02-29T23:53:16.059Z,9.84
2024-02-29T23:55:46.197Z,9.84
2024-02-29T23:58:16.188Z,9.83
